sensor_id;sensor_type;location;lat;lon;timestamp;P1;durP1;ratioP1;P2;durP2;ratioP2
3447;SDS011;1738;49.500;17.736;2023-02-24T00:00:33;26.30;;;15.03;;
3447;SDS011;1738;49.500;17.736;2023-02-24T00:02:59;23.33;;;13.50;;
3447;SDS011;1738;49.500;17.736;2023-02-24T00:05:24;28.30;;;14.50;;
3447;SDS011;1738;49.500;17.736;2023-02-24T00:07:50;25.97;;;14.87;;
3447;SDS011;1738;49.500;17.736;2023-02-24T00:10:16;25.00;;;15.37;;
3447;SDS011;1738;49.500;17.736;2023-02-24T00:12:42;30.53;;;15.13;;
3447;SDS011;1738;49.500;17.736;2023-02-24T00:15:08;19.03;;;12.57;;
3447;SDS011;1738;49.500;17.736;2023-02-24T00:17:34;22.37;;;14.97;;
3447;SDS011;1738;49.500;17.736;2023-02-24T00:20:00;18.87;;;13.70;;
3447;SDS011;1738;49.500;17.736;2023-02-24T00:22:26;26.93;;;14.90;;
3447;SDS011;1738;49.500;17.736;2023-02-24T00:24:52;23.97;;;13.87;;
3447;SDS011;1738;49.500;17.736;2023-02-24T00:27:18;22.23;;;13.70;;
3447;SDS011;1738;49.500;17.736;2023-02-24T00:29:44;23.37;;;14.63;;
3447;SDS011;1738;49.500;17.736;2023-02-24T00:32:09;29.70;;;14.63;;
3447;SDS011;1738;49.500;17.736;2023-02-24T00:34:37;26.97;;;15.80;;
3447;SDS011;1738;49.500;17.736;2023-02-24T00:37:03;27.63;;;15.17;;
3447;SDS011;1738;49.500;17.736;2023-02-24T00:39:29;24.13;;;14.37;;
3447;SDS011;1738;49.500;17.736;2023-02-24T00:41:55;23.23;;;13.57;;
3447;SDS011;1738;49.500;17.736;2023-02-24T00:44:22;25.00;;;15.63;;
3447;SDS011;1738;49.500;17.736;2023-02-24T00:46:48;25.97;;;16.80;;
3447;SDS011;1738;49.500;17.736;2023-02-24T00:49:15;32.10;;;16.87;;
3447;SDS011;1738;49.500;17.736;2023-02-24T00:51:40;24.57;;;14.87;;
3447;SDS011;1738;49.500;17.736;2023-02-24T00:54:06;21.97;;;13.10;;
3447;SDS011;1738;49.500;17.736;2023-02-24T00:56:32;20.00;;;14.70;;
3447;SDS011;1738;49.500;17.736;2023-02-24T00:58:58;22.00;;;13.27;;
3447;SDS011;1738;49.500;17.736;2023-02-24T01:01:24;25.20;;;13.37;;
3447;SDS011;1738;49.500;17.736;2023-02-24T01:03:50;23.13;;;13.73;;
3447;SDS011;1738;49.500;17.736;2023-02-24T01:06:16;24.25;;;14.43;;
3447;SDS011;1738;49.500;17.736;2023-02-24T01:08:41;28.13;;;16.60;;
3447;SDS011;1738;49.500;17.736;2023-02-24T01:11:08;22.97;;;14.67;;
3447;SDS011;1738;49.500;17.736;2023-02-24T01:13:50;29.10;;;15.27;;
3447;SDS011;1738;49.500;17.736;2023-02-24T01:16:16;27.30;;;15.23;;
3447;SDS011;1738;49.500;17.736;2023-02-24T01:18:42;30.70;;;14.73;;
3447;SDS011;1738;49.500;17.736;2023-02-24T01:21:08;23.27;;;13.50;;
3447;SDS011;1738;49.500;17.736;2023-02-24T01:23:34;27.27;;;15.53;;
3447;SDS011;1738;49.500;17.736;2023-02-24T01:26:01;27.83;;;14.30;;
3447;SDS011;1738;49.500;17.736;2023-02-24T01:28:25;21.43;;;13.97;;
3447;SDS011;1738;49.500;17.736;2023-02-24T01:30:52;23.00;;;13.80;;
3447;SDS011;1738;49.500;17.736;2023-02-24T01:33:17;27.73;;;15.50;;
3447;SDS011;1738;49.500;17.736;2023-02-24T01:35:43;23.10;;;14.27;;
3447;SDS011;1738;49.500;17.736;2023-02-24T01:38:09;23.63;;;12.93;;
3447;SDS011;1738;49.500;17.736;2023-02-24T01:40:35;23.80;;;13.40;;
3447;SDS011;1738;49.500;17.736;2023-02-24T01:43:01;20.27;;;12.97;;
3447;SDS011;1738;49.500;17.736;2023-02-24T01:45:27;26.37;;;15.60;;
3447;SDS011;1738;49.500;17.736;2023-02-24T01:47:56;28.63;;;14.80;;
3447;SDS011;1738;49.500;17.736;2023-02-24T01:50:19;27.00;;;14.77;;
3447;SDS011;1738;49.500;17.736;2023-02-24T01:52:45;22.50;;;14.32;;
3447;SDS011;1738;49.500;17.736;2023-02-24T01:55:12;26.23;;;15.32;;
3447;SDS011;1738;49.500;17.736;2023-02-24T01:57:37;27.73;;;14.40;;
3447;SDS011;1738;49.500;17.736;2023-02-24T02:00:04;21.30;;;13.50;;
3447;SDS011;1738;49.500;17.736;2023-02-24T02:02:29;24.17;;;12.93;;
3447;SDS011;1738;49.500;17.736;2023-02-24T02:04:57;20.77;;;13.48;;
3447;SDS011;1738;49.500;17.736;2023-02-24T02:07:22;29.20;;;15.57;;
3447;SDS011;1738;49.500;17.736;2023-02-24T02:09:47;24.07;;;14.10;;
3447;SDS011;1738;49.500;17.736;2023-02-24T02:12:13;27.30;;;14.77;;
3447;SDS011;1738;49.500;17.736;2023-02-24T02:14:41;23.00;;;14.17;;
3447;SDS011;1738;49.500;17.736;2023-02-24T02:17:09;28.90;;;15.20;;
3447;SDS011;1738;49.500;17.736;2023-02-24T02:22:11;26.40;;;14.43;;
3447;SDS011;1738;49.500;17.736;2023-02-24T02:24:35;28.53;;;14.33;;
3447;SDS011;1738;49.500;17.736;2023-02-24T02:27:13;24.07;;;15.20;;
3447;SDS011;1738;49.500;17.736;2023-02-24T02:29:46;26.23;;;14.80;;
3447;SDS011;1738;49.500;17.736;2023-02-24T02:32:24;21.97;;;13.67;;
3447;SDS011;1738;49.500;17.736;2023-02-24T02:34:54;23.23;;;14.00;;
3447;SDS011;1738;49.500;17.736;2023-02-24T02:37:24;30.90;;;14.60;;
3447;SDS011;1738;49.500;17.736;2023-02-24T02:39:50;26.83;;;16.52;;
3447;SDS011;1738;49.500;17.736;2023-02-24T02:42:34;27.23;;;16.00;;
3447;SDS011;1738;49.500;17.736;2023-02-24T02:45:04;28.47;;;16.07;;
3447;SDS011;1738;49.500;17.736;2023-02-24T02:47:26;27.27;;;14.33;;
3447;SDS011;1738;49.500;17.736;2023-02-24T02:49:53;21.77;;;13.70;;
3447;SDS011;1738;49.500;17.736;2023-02-24T02:52:21;30.10;;;16.00;;
3447;SDS011;1738;49.500;17.736;2023-02-24T02:54:45;26.90;;;14.10;;
3447;SDS011;1738;49.500;17.736;2023-02-24T02:57:11;27.73;;;14.70;;
3447;SDS011;1738;49.500;17.736;2023-02-24T02:59:39;27.63;;;15.40;;
3447;SDS011;1738;49.500;17.736;2023-02-24T03:02:03;31.80;;;16.90;;
3447;SDS011;1738;49.500;17.736;2023-02-24T03:04:28;26.80;;;16.60;;
3447;SDS011;1738;49.500;17.736;2023-02-24T03:06:56;28.33;;;16.70;;
3447;SDS011;1738;49.500;17.736;2023-02-24T03:09:24;27.10;;;15.83;;
3447;SDS011;1738;49.500;17.736;2023-02-24T03:11:51;27.80;;;15.17;;
3447;SDS011;1738;49.500;17.736;2023-02-24T03:14:15;27.33;;;14.83;;
3447;SDS011;1738;49.500;17.736;2023-02-24T03:16:42;27.08;;;16.40;;
3447;SDS011;1738;49.500;17.736;2023-02-24T03:19:08;30.83;;;17.67;;
3447;SDS011;1738;49.500;17.736;2023-02-24T03:21:35;28.27;;;15.03;;
3447;SDS011;1738;49.500;17.736;2023-02-24T03:23:59;26.27;;;16.03;;
3447;SDS011;1738;49.500;17.736;2023-02-24T03:26:27;29.10;;;14.73;;
3447;SDS011;1738;49.500;17.736;2023-02-24T03:28:52;28.03;;;16.27;;
3447;SDS011;1738;49.500;17.736;2023-02-24T03:31:20;29.63;;;15.40;;
3447;SDS011;1738;49.500;17.736;2023-02-24T03:33:48;24.20;;;15.30;;
3447;SDS011;1738;49.500;17.736;2023-02-24T03:36:11;28.50;;;16.17;;
3447;SDS011;1738;49.500;17.736;2023-02-24T03:38:37;25.67;;;14.67;;
3447;SDS011;1738;49.500;17.736;2023-02-24T03:41:03;21.67;;;14.87;;
3447;SDS011;1738;49.500;17.736;2023-02-24T03:43:29;31.87;;;15.40;;
3447;SDS011;1738;49.500;17.736;2023-02-24T03:45:54;23.33;;;15.30;;
3447;SDS011;1738;49.500;17.736;2023-02-24T03:48:20;28.37;;;16.03;;
3447;SDS011;1738;49.500;17.736;2023-02-24T03:50:46;25.97;;;15.30;;
3447;SDS011;1738;49.500;17.736;2023-02-24T03:53:30;22.10;;;14.10;;
3447;SDS011;1738;49.500;17.736;2023-02-24T03:56:02;31.03;;;16.00;;
3447;SDS011;1738;49.500;17.736;2023-02-24T04:01:09;26.20;;;14.90;;
3447;SDS011;1738;49.500;17.736;2023-02-24T04:03:35;27.03;;;15.57;;
3447;SDS011;1738;49.500;17.736;2023-02-24T04:06:10;34.70;;;17.23;;
3447;SDS011;1738;49.500;17.736;2023-02-24T04:08:41;27.07;;;15.03;;
3447;SDS011;1738;49.500;17.736;2023-02-24T04:11:09;33.13;;;15.47;;
3447;SDS011;1738;49.500;17.736;2023-02-24T04:13:33;38.97;;;15.77;;
3447;SDS011;1738;49.500;17.736;2023-02-24T04:15:58;39.33;;;18.13;;
3447;SDS011;1738;49.500;17.736;2023-02-24T04:18:25;32.23;;;18.93;;
3447;SDS011;1738;49.500;17.736;2023-02-24T04:20:50;31.23;;;16.00;;
3447;SDS011;1738;49.500;17.736;2023-02-24T04:23:16;32.00;;;18.30;;
3447;SDS011;1738;49.500;17.736;2023-02-24T04:25:44;28.47;;;17.30;;
3447;SDS011;1738;49.500;17.736;2023-02-24T04:28:09;30.50;;;17.53;;
3447;SDS011;1738;49.500;17.736;2023-02-24T04:30:35;34.10;;;19.55;;
3447;SDS011;1738;49.500;17.736;2023-02-24T04:33:00;29.60;;;16.40;;
3447;SDS011;1738;49.500;17.736;2023-02-24T04:35:26;34.70;;;16.73;;
3447;SDS011;1738;49.500;17.736;2023-02-24T04:37:52;36.28;;;18.00;;
3447;SDS011;1738;49.500;17.736;2023-02-24T04:40:18;43.57;;;19.10;;
3447;SDS011;1738;49.500;17.736;2023-02-24T04:42:44;30.63;;;16.83;;
3447;SDS011;1738;49.500;17.736;2023-02-24T04:45:12;30.27;;;17.90;;
3447;SDS011;1738;49.500;17.736;2023-02-24T04:47:36;29.37;;;17.37;;
3447;SDS011;1738;49.500;17.736;2023-02-24T04:50:02;38.30;;;18.17;;
3447;SDS011;1738;49.500;17.736;2023-02-24T04:52:28;29.33;;;17.30;;
3447;SDS011;1738;49.500;17.736;2023-02-24T04:54:54;32.30;;;21.00;;
3447;SDS011;1738;49.500;17.736;2023-02-24T04:57:20;30.37;;;16.37;;
3447;SDS011;1738;49.500;17.736;2023-02-24T04:59:46;28.17;;;17.30;;
3447;SDS011;1738;49.500;17.736;2023-02-24T05:02:12;35.30;;;19.57;;
3447;SDS011;1738;49.500;17.736;2023-02-24T05:04:37;33.50;;;21.80;;
3447;SDS011;1738;49.500;17.736;2023-02-24T05:07:03;42.90;;;19.30;;
3447;SDS011;1738;49.500;17.736;2023-02-24T05:09:29;34.65;;;18.58;;
3447;SDS011;1738;49.500;17.736;2023-02-24T05:11:55;29.10;;;18.43;;
3447;SDS011;1738;49.500;17.736;2023-02-24T05:14:21;35.87;;;19.70;;
3447;SDS011;1738;49.500;17.736;2023-02-24T05:16:47;29.75;;;18.45;;
3447;SDS011;1738;49.500;17.736;2023-02-24T05:19:14;33.17;;;18.17;;
3447;SDS011;1738;49.500;17.736;2023-02-24T05:21:44;26.70;;;18.10;;
3447;SDS011;1738;49.500;17.736;2023-02-24T05:24:10;30.90;;;18.77;;
3447;SDS011;1738;49.500;17.736;2023-02-24T05:26:37;30.97;;;18.83;;
3447;SDS011;1738;49.500;17.736;2023-02-24T05:29:03;33.23;;;18.57;;
3447;SDS011;1738;49.500;17.736;2023-02-24T05:31:28;30.40;;;18.17;;
3447;SDS011;1738;49.500;17.736;2023-02-24T05:33:55;31.90;;;18.20;;
3447;SDS011;1738;49.500;17.736;2023-02-24T05:36:20;35.78;;;18.92;;
3447;SDS011;1738;49.500;17.736;2023-02-24T05:38:46;31.57;;;17.30;;
3447;SDS011;1738;49.500;17.736;2023-02-24T05:41:13;34.80;;;19.70;;
3447;SDS011;1738;49.500;17.736;2023-02-24T05:43:44;34.97;;;19.57;;
3447;SDS011;1738;49.500;17.736;2023-02-24T05:46:11;30.50;;;20.10;;
3447;SDS011;1738;49.500;17.736;2023-02-24T05:48:37;34.67;;;20.53;;
3447;SDS011;1738;49.500;17.736;2023-02-24T05:51:03;40.23;;;20.10;;
3447;SDS011;1738;49.500;17.736;2023-02-24T05:53:29;33.67;;;21.50;;
3447;SDS011;1738;49.500;17.736;2023-02-24T05:55:58;35.20;;;19.07;;
3447;SDS011;1738;49.500;17.736;2023-02-24T05:58:21;36.33;;;18.70;;
3447;SDS011;1738;49.500;17.736;2023-02-24T06:00:46;37.92;;;22.62;;
3447;SDS011;1738;49.500;17.736;2023-02-24T06:03:12;34.10;;;19.27;;
3447;SDS011;1738;49.500;17.736;2023-02-24T06:05:38;37.47;;;20.53;;
3447;SDS011;1738;49.500;17.736;2023-02-24T06:08:04;38.80;;;19.33;;
3447;SDS011;1738;49.500;17.736;2023-02-24T06:10:31;36.27;;;21.30;;
3447;SDS011;1738;49.500;17.736;2023-02-24T06:12:56;36.93;;;22.00;;
3447;SDS011;1738;49.500;17.736;2023-02-24T06:15:22;33.47;;;21.40;;
3447;SDS011;1738;49.500;17.736;2023-02-24T06:17:47;36.47;;;20.10;;
3447;SDS011;1738;49.500;17.736;2023-02-24T06:20:13;38.87;;;22.87;;
3447;SDS011;1738;49.500;17.736;2023-02-24T06:22:39;40.53;;;24.47;;
3447;SDS011;1738;49.500;17.736;2023-02-24T06:25:05;43.33;;;23.47;;
3447;SDS011;1738;49.500;17.736;2023-02-24T06:27:31;41.17;;;22.80;;
3447;SDS011;1738;49.500;17.736;2023-02-24T06:29:57;44.87;;;23.10;;
3447;SDS011;1738;49.500;17.736;2023-02-24T06:32:24;41.63;;;24.27;;
3447;SDS011;1738;49.500;17.736;2023-02-24T06:34:49;39.90;;;22.83;;
3447;SDS011;1738;49.500;17.736;2023-02-24T06:37:15;38.53;;;23.63;;
3447;SDS011;1738;49.500;17.736;2023-02-24T06:39:41;38.50;;;21.30;;
3447;SDS011;1738;49.500;17.736;2023-02-24T06:42:08;37.83;;;24.07;;
3447;SDS011;1738;49.500;17.736;2023-02-24T06:44:34;36.87;;;22.40;;
3447;SDS011;1738;49.500;17.736;2023-02-24T06:46:59;44.67;;;24.73;;
3447;SDS011;1738;49.500;17.736;2023-02-24T06:49:25;33.23;;;21.40;;
3447;SDS011;1738;49.500;17.736;2023-02-24T06:51:51;39.43;;;24.40;;
3447;SDS011;1738;49.500;17.736;2023-02-24T06:54:17;39.05;;;22.20;;
3447;SDS011;1738;49.500;17.736;2023-02-24T06:56:42;37.93;;;21.47;;
3447;SDS011;1738;49.500;17.736;2023-02-24T06:59:09;32.13;;;20.57;;
3447;SDS011;1738;49.500;17.736;2023-02-24T07:01:36;39.53;;;21.97;;
3447;SDS011;1738;49.500;17.736;2023-02-24T07:04:02;40.93;;;23.83;;
3447;SDS011;1738;49.500;17.736;2023-02-24T07:06:45;32.30;;;20.50;;
3447;SDS011;1738;49.500;17.736;2023-02-24T07:09:10;40.70;;;23.33;;
3447;SDS011;1738;49.500;17.736;2023-02-24T07:11:36;37.53;;;20.90;;
3447;SDS011;1738;49.500;17.736;2023-02-24T07:14:01;44.00;;;23.27;;
3447;SDS011;1738;49.500;17.736;2023-02-24T07:16:27;41.20;;;24.30;;
3447;SDS011;1738;49.500;17.736;2023-02-24T07:18:53;35.83;;;22.73;;
3447;SDS011;1738;49.500;17.736;2023-02-24T07:21:19;33.80;;;22.37;;
3447;SDS011;1738;49.500;17.736;2023-02-24T07:23:45;42.97;;;25.83;;
3447;SDS011;1738;49.500;17.736;2023-02-24T07:26:11;42.23;;;25.57;;
3447;SDS011;1738;49.500;17.736;2023-02-24T07:28:37;44.57;;;26.70;;
3447;SDS011;1738;49.500;17.736;2023-02-24T07:31:03;44.70;;;26.13;;
3447;SDS011;1738;49.500;17.736;2023-02-24T07:33:29;45.97;;;24.30;;
3447;SDS011;1738;49.500;17.736;2023-02-24T07:35:55;39.40;;;24.17;;
3447;SDS011;1738;49.500;17.736;2023-02-24T07:38:21;42.70;;;26.70;;
3447;SDS011;1738;49.500;17.736;2023-02-24T07:40:47;41.93;;;24.30;;
3447;SDS011;1738;49.500;17.736;2023-02-24T07:43:13;43.60;;;25.03;;
3447;SDS011;1738;49.500;17.736;2023-02-24T07:45:38;44.27;;;26.20;;
3447;SDS011;1738;49.500;17.736;2023-02-24T07:48:04;41.13;;;23.93;;
3447;SDS011;1738;49.500;17.736;2023-02-24T07:50:30;37.43;;;21.77;;
3447;SDS011;1738;49.500;17.736;2023-02-24T07:52:56;46.80;;;24.03;;
3447;SDS011;1738;49.500;17.736;2023-02-24T07:55:22;43.20;;;22.30;;
3447;SDS011;1738;49.500;17.736;2023-02-24T07:57:48;39.33;;;23.67;;
3447;SDS011;1738;49.500;17.736;2023-02-24T08:00:14;41.87;;;25.70;;
3447;SDS011;1738;49.500;17.736;2023-02-24T08:02:41;40.63;;;24.20;;
3447;SDS011;1738;49.500;17.736;2023-02-24T08:05:06;42.77;;;25.60;;
3447;SDS011;1738;49.500;17.736;2023-02-24T08:07:33;38.38;;;22.92;;
3447;SDS011;1738;49.500;17.736;2023-02-24T08:09:59;36.07;;;23.40;;
3447;SDS011;1738;49.500;17.736;2023-02-24T08:12:30;41.90;;;25.10;;
3447;SDS011;1738;49.500;17.736;2023-02-24T08:14:56;39.03;;;24.10;;
3447;SDS011;1738;49.500;17.736;2023-02-24T08:17:23;39.58;;;24.45;;
3447;SDS011;1738;49.500;17.736;2023-02-24T08:19:48;47.70;;;27.13;;
3447;SDS011;1738;49.500;17.736;2023-02-24T08:22:14;38.45;;;24.23;;
3447;SDS011;1738;49.500;17.736;2023-02-24T08:24:46;43.22;;;27.15;;
3447;SDS011;1738;49.500;17.736;2023-02-24T08:27:11;41.97;;;23.20;;
3447;SDS011;1738;49.500;17.736;2023-02-24T08:29:37;40.70;;;24.03;;
3447;SDS011;1738;49.500;17.736;2023-02-24T08:32:05;38.60;;;24.10;;
3447;SDS011;1738;49.500;17.736;2023-02-24T08:34:30;41.40;;;23.60;;
3447;SDS011;1738;49.500;17.736;2023-02-24T08:36:57;43.50;;;24.50;;
3447;SDS011;1738;49.500;17.736;2023-02-24T08:39:23;50.77;;;25.73;;
3447;SDS011;1738;49.500;17.736;2023-02-24T08:41:48;42.93;;;26.33;;
3447;SDS011;1738;49.500;17.736;2023-02-24T08:44:16;42.47;;;25.37;;
3447;SDS011;1738;49.500;17.736;2023-02-24T08:46:42;42.00;;;25.40;;
3447;SDS011;1738;49.500;17.736;2023-02-24T08:49:08;42.88;;;25.37;;
3447;SDS011;1738;49.500;17.736;2023-02-24T08:51:34;39.70;;;24.87;;
3447;SDS011;1738;49.500;17.736;2023-02-24T08:54:00;44.45;;;25.37;;
3447;SDS011;1738;49.500;17.736;2023-02-24T08:56:28;40.53;;;24.70;;
3447;SDS011;1738;49.500;17.736;2023-02-24T08:58:54;44.67;;;25.57;;
3447;SDS011;1738;49.500;17.736;2023-02-24T09:01:19;41.97;;;26.90;;
3447;SDS011;1738;49.500;17.736;2023-02-24T09:03:45;38.13;;;24.73;;
3447;SDS011;1738;49.500;17.736;2023-02-24T09:06:11;48.23;;;25.90;;
3447;SDS011;1738;49.500;17.736;2023-02-24T09:08:37;42.70;;;25.63;;
3447;SDS011;1738;49.500;17.736;2023-02-24T09:11:03;50.08;;;27.30;;
3447;SDS011;1738;49.500;17.736;2023-02-24T09:13:29;46.43;;;25.03;;
3447;SDS011;1738;49.500;17.736;2023-02-24T09:15:58;39.77;;;24.77;;
3447;SDS011;1738;49.500;17.736;2023-02-24T09:18:23;44.00;;;23.40;;
3447;SDS011;1738;49.500;17.736;2023-02-24T09:20:49;41.10;;;25.40;;
3447;SDS011;1738;49.500;17.736;2023-02-24T09:23:21;47.33;;;25.70;;
3447;SDS011;1738;49.500;17.736;2023-02-24T09:25:47;43.90;;;26.70;;
3447;SDS011;1738;49.500;17.736;2023-02-24T09:28:18;48.43;;;27.90;;
3447;SDS011;1738;49.500;17.736;2023-02-24T09:30:47;45.77;;;26.20;;
3447;SDS011;1738;49.500;17.736;2023-02-24T09:33:15;48.10;;;29.27;;
3447;SDS011;1738;49.500;17.736;2023-02-24T09:35:43;40.20;;;27.53;;
3447;SDS011;1738;49.500;17.736;2023-02-24T09:38:08;44.83;;;25.80;;
3447;SDS011;1738;49.500;17.736;2023-02-24T09:40:34;50.77;;;29.43;;
3447;SDS011;1738;49.500;17.736;2023-02-24T09:43:02;45.50;;;28.37;;
3447;SDS011;1738;49.500;17.736;2023-02-24T09:45:28;44.17;;;26.00;;
3447;SDS011;1738;49.500;17.736;2023-02-24T09:48:01;39.28;;;25.30;;
3447;SDS011;1738;49.500;17.736;2023-02-24T09:50:26;44.17;;;24.70;;
3447;SDS011;1738;49.500;17.736;2023-02-24T09:52:53;51.92;;;26.98;;
3447;SDS011;1738;49.500;17.736;2023-02-24T09:55:26;45.63;;;27.00;;
3447;SDS011;1738;49.500;17.736;2023-02-24T09:57:51;45.65;;;27.95;;
3447;SDS011;1738;49.500;17.736;2023-02-24T10:00:21;41.10;;;26.27;;
3447;SDS011;1738;49.500;17.736;2023-02-24T10:02:54;46.33;;;26.73;;
3447;SDS011;1738;49.500;17.736;2023-02-24T10:05:22;41.28;;;24.00;;
3447;SDS011;1738;49.500;17.736;2023-02-24T10:07:45;40.40;;;26.27;;
3447;SDS011;1738;49.500;17.736;2023-02-24T10:10:13;43.60;;;27.07;;
3447;SDS011;1738;49.500;17.736;2023-02-24T10:12:46;42.10;;;26.20;;
3447;SDS011;1738;49.500;17.736;2023-02-24T10:15:12;39.30;;;25.90;;
3447;SDS011;1738;49.500;17.736;2023-02-24T10:17:53;38.17;;;25.10;;
3447;SDS011;1738;49.500;17.736;2023-02-24T10:20:21;45.87;;;26.37;;
3447;SDS011;1738;49.500;17.736;2023-02-24T10:22:53;33.40;;;22.93;;
3447;SDS011;1738;49.500;17.736;2023-02-24T10:25:22;37.93;;;24.10;;
3447;SDS011;1738;49.500;17.736;2023-02-24T10:27:50;39.23;;;25.00;;
3447;SDS011;1738;49.500;17.736;2023-02-24T10:30:15;40.40;;;23.30;;
3447;SDS011;1738;49.500;17.736;2023-02-24T10:32:45;45.60;;;24.93;;
3447;SDS011;1738;49.500;17.736;2023-02-24T10:35:13;36.73;;;23.60;;
3447;SDS011;1738;49.500;17.736;2023-02-24T10:37:37;39.60;;;23.13;;
3447;SDS011;1738;49.500;17.736;2023-02-24T10:40:04;37.80;;;23.70;;
3447;SDS011;1738;49.500;17.736;2023-02-24T10:42:31;39.27;;;23.70;;
3447;SDS011;1738;49.500;17.736;2023-02-24T10:47:28;43.27;;;24.53;;
3447;SDS011;1738;49.500;17.736;2023-02-24T10:49:57;37.50;;;25.63;;
3447;SDS011;1738;49.500;17.736;2023-02-24T10:52:23;41.73;;;26.33;;
3447;SDS011;1738;49.500;17.736;2023-02-24T10:55:12;37.57;;;24.20;;
3447;SDS011;1738;49.500;17.736;2023-02-24T10:57:41;39.50;;;22.57;;
3447;SDS011;1738;49.500;17.736;2023-02-24T11:00:08;34.10;;;20.50;;
3447;SDS011;1738;49.500;17.736;2023-02-24T11:02:38;35.13;;;23.40;;
3447;SDS011;1738;49.500;17.736;2023-02-24T11:05:11;45.00;;;23.40;;
3447;SDS011;1738;49.500;17.736;2023-02-24T11:07:42;41.67;;;23.17;;
3447;SDS011;1738;49.500;17.736;2023-02-24T11:10:13;35.50;;;20.50;;
3447;SDS011;1738;49.500;17.736;2023-02-24T11:12:45;38.80;;;24.33;;
3447;SDS011;1738;49.500;17.736;2023-02-24T11:15:18;35.33;;;22.50;;
3447;SDS011;1738;49.500;17.736;2023-02-24T11:17:51;42.10;;;24.03;;
3447;SDS011;1738;49.500;17.736;2023-02-24T11:20:20;36.00;;;23.07;;
3447;SDS011;1738;49.500;17.736;2023-02-24T11:22:42;41.20;;;23.73;;
3447;SDS011;1738;49.500;17.736;2023-02-24T11:25:19;38.00;;;24.30;;
3447;SDS011;1738;49.500;17.736;2023-02-24T11:27:46;41.60;;;25.23;;
3447;SDS011;1738;49.500;17.736;2023-02-24T11:30:13;38.43;;;25.30;;
3447;SDS011;1738;49.500;17.736;2023-02-24T11:32:48;39.67;;;27.07;;
3447;SDS011;1738;49.500;17.736;2023-02-24T11:35:17;38.53;;;24.63;;
3447;SDS011;1738;49.500;17.736;2023-02-24T11:37:43;37.30;;;25.67;;
3447;SDS011;1738;49.500;17.736;2023-02-24T11:42:43;38.00;;;25.40;;
3447;SDS011;1738;49.500;17.736;2023-02-24T11:47:41;43.30;;;26.53;;
3447;SDS011;1738;49.500;17.736;2023-02-24T11:50:18;40.37;;;26.23;;
3447;SDS011;1738;49.500;17.736;2023-02-24T11:52:40;42.33;;;27.03;;
3447;SDS011;1738;49.500;17.736;2023-02-24T11:55:12;40.40;;;23.73;;
3447;SDS011;1738;49.500;17.736;2023-02-24T11:57:35;45.90;;;26.27;;
3447;SDS011;1738;49.500;17.736;2023-02-24T12:00:02;36.37;;;24.57;;
3447;SDS011;1738;49.500;17.736;2023-02-24T12:05:12;44.80;;;23.63;;
3447;SDS011;1738;49.500;17.736;2023-02-24T12:07:38;41.30;;;24.90;;
3447;SDS011;1738;49.500;17.736;2023-02-24T12:11:11;37.00;;;24.80;;
3447;SDS011;1738;49.500;17.736;2023-02-24T12:12:48;41.70;;;24.87;;
3447;SDS011;1738;49.500;17.736;2023-02-24T12:15:12;34.30;;;23.57;;
3447;SDS011;1738;49.500;17.736;2023-02-24T12:17:40;39.57;;;25.60;;
3447;SDS011;1738;49.500;17.736;2023-02-24T12:20:05;39.30;;;25.40;;
3447;SDS011;1738;49.500;17.736;2023-02-24T12:22:37;37.70;;;24.67;;
3447;SDS011;1738;49.500;17.736;2023-02-24T12:24:59;41.17;;;25.20;;
3447;SDS011;1738;49.500;17.736;2023-02-24T12:28:34;37.53;;;23.47;;
3447;SDS011;1738;49.500;17.736;2023-02-24T12:30:14;40.50;;;27.33;;
3447;SDS011;1738;49.500;17.736;2023-02-24T12:32:43;38.73;;;23.80;;
3447;SDS011;1738;49.500;17.736;2023-02-24T12:35:14;34.90;;;23.60;;
3447;SDS011;1738;49.500;17.736;2023-02-24T12:37:48;48.07;;;25.70;;
3447;SDS011;1738;49.500;17.736;2023-02-24T12:40:46;46.33;;;27.23;;
3447;SDS011;1738;49.500;17.736;2023-02-24T12:42:56;44.03;;;27.27;;
3447;SDS011;1738;49.500;17.736;2023-02-24T12:45:22;38.80;;;24.80;;
3447;SDS011;1738;49.500;17.736;2023-02-24T12:47:55;39.30;;;25.97;;
3447;SDS011;1738;49.500;17.736;2023-02-24T12:50:23;39.57;;;26.23;;
3447;SDS011;1738;49.500;17.736;2023-02-24T12:52:51;36.93;;;24.20;;
3447;SDS011;1738;49.500;17.736;2023-02-24T12:55:21;40.73;;;24.10;;
3447;SDS011;1738;49.500;17.736;2023-02-24T12:57:48;39.30;;;25.60;;
3447;SDS011;1738;49.500;17.736;2023-02-24T13:00:15;45.63;;;23.20;;
3447;SDS011;1738;49.500;17.736;2023-02-24T13:05:18;39.80;;;23.83;;
3447;SDS011;1738;49.500;17.736;2023-02-24T13:08:49;33.63;;;23.93;;
3447;SDS011;1738;49.500;17.736;2023-02-24T13:10:28;37.07;;;23.93;;
3447;SDS011;1738;49.500;17.736;2023-02-24T13:12:54;39.60;;;25.87;;
3447;SDS011;1738;49.500;17.736;2023-02-24T13:15:21;37.50;;;26.10;;
3447;SDS011;1738;49.500;17.736;2023-02-24T13:17:46;38.57;;;24.17;;
3447;SDS011;1738;49.500;17.736;2023-02-24T13:20:12;37.30;;;23.50;;
3447;SDS011;1738;49.500;17.736;2023-02-24T13:22:40;39.63;;;25.90;;
3447;SDS011;1738;49.500;17.736;2023-02-24T13:25:11;33.67;;;23.62;;
3447;SDS011;1738;49.500;17.736;2023-02-24T13:27:36;36.60;;;23.60;;
3447;SDS011;1738;49.500;17.736;2023-02-24T13:30:04;34.60;;;22.80;;
3447;SDS011;1738;49.500;17.736;2023-02-24T13:32:30;31.87;;;21.27;;
3447;SDS011;1738;49.500;17.736;2023-02-24T13:34:58;30.30;;;21.90;;
3447;SDS011;1738;49.500;17.736;2023-02-24T13:37:26;32.17;;;21.30;;
3447;SDS011;1738;49.500;17.736;2023-02-24T13:39:51;28.67;;;20.47;;
3447;SDS011;1738;49.500;17.736;2023-02-24T13:42:21;31.73;;;19.73;;
3447;SDS011;1738;49.500;17.736;2023-02-24T13:44:48;30.50;;;21.23;;
3447;SDS011;1738;49.500;17.736;2023-02-24T13:47:19;39.53;;;21.30;;
3447;SDS011;1738;49.500;17.736;2023-02-24T13:52:40;31.40;;;21.10;;
3447;SDS011;1738;49.500;17.736;2023-02-24T13:55:07;36.50;;;21.00;;
3447;SDS011;1738;49.500;17.736;2023-02-24T13:57:35;30.73;;;20.90;;
3447;SDS011;1738;49.500;17.736;2023-02-24T14:02:28;36.00;;;23.03;;
3447;SDS011;1738;49.500;17.736;2023-02-24T14:04:56;31.13;;;21.20;;
3447;SDS011;1738;49.500;17.736;2023-02-24T14:07:22;35.50;;;23.70;;
3447;SDS011;1738;49.500;17.736;2023-02-24T14:09:50;37.40;;;22.07;;
3447;SDS011;1738;49.500;17.736;2023-02-24T14:12:15;38.00;;;24.40;;
3447;SDS011;1738;49.500;17.736;2023-02-24T14:14:41;40.00;;;26.10;;
3447;SDS011;1738;49.500;17.736;2023-02-24T14:17:17;34.33;;;24.20;;
3447;SDS011;1738;49.500;17.736;2023-02-24T14:19:33;36.13;;;23.07;;
3447;SDS011;1738;49.500;17.736;2023-02-24T14:22:00;40.10;;;25.25;;
3447;SDS011;1738;49.500;17.736;2023-02-24T14:24:26;41.27;;;25.27;;
3447;SDS011;1738;49.500;17.736;2023-02-24T14:26:52;43.87;;;24.40;;
3447;SDS011;1738;49.500;17.736;2023-02-24T14:29:20;42.57;;;26.23;;
3447;SDS011;1738;49.500;17.736;2023-02-24T14:31:46;36.00;;;22.80;;
3447;SDS011;1738;49.500;17.736;2023-02-24T14:34:11;37.70;;;21.50;;
3447;SDS011;1738;49.500;17.736;2023-02-24T14:36:40;32.07;;;18.67;;
3447;SDS011;1738;49.500;17.736;2023-02-24T14:39:08;31.50;;;18.73;;
3447;SDS011;1738;49.500;17.736;2023-02-24T14:41:33;32.40;;;21.20;;
3447;SDS011;1738;49.500;17.736;2023-02-24T14:44:07;43.07;;;22.27;;
3447;SDS011;1738;49.500;17.736;2023-02-24T14:46:32;32.13;;;19.92;;
3447;SDS011;1738;49.500;17.736;2023-02-24T14:48:59;25.63;;;17.37;;
3447;SDS011;1738;49.500;17.736;2023-02-24T14:51:31;33.10;;;18.43;;
3447;SDS011;1738;49.500;17.736;2023-02-24T14:53:58;31.23;;;18.83;;
3447;SDS011;1738;49.500;17.736;2023-02-24T14:56:25;29.25;;;18.67;;